createdAt,value
2019-03-21T00:00:51.109Z,100816.98
2019-03-21T00:02:25.407Z,100819.95
2019-03-21T00:04:02.998Z,100821.91
2019-03-21T00:05:37.445Z,100817.94
2019-03-21T00:07:11.782Z,100815.42
2019-03-21T00:08:47.669Z,100820.66
2019-03-21T00:10:30.745Z,100814.97
2019-03-21T00:12:11.976Z,100820.28
2019-03-21T00:13:46.205Z,100818.71
2019-03-21T00:15:22.872Z,100824.70
2019-03-21T00:16:56.645Z,100817.61
2019-03-21T00:18:30.854Z,100822.44
2019-03-21T00:20:10.916Z,100823.27
2019-03-21T00:21:45.271Z,100818.93
2019-03-21T00:23:19.572Z,100816.12
2019-03-21T00:24:53.814Z,100814.03
2019-03-21T00:26:28.130Z,100815.31
2019-03-21T00:28:02.379Z,100806.11
2019-03-21T00:29:37.118Z,100807.36
2019-03-21T00:31:11.402Z,100806.63
2019-03-21T00:32:45.750Z,100805.45
2019-03-21T00:34:20.097Z,100805.23
2019-03-21T00:35:54.429Z,100803.42
2019-03-21T00:37:31.545Z,100801.63
2019-03-21T00:39:08.385Z,100809.05
2019-03-21T00:40:47.020Z,100810.39
2019-03-21T00:42:21.250Z,100807.89
2019-03-21T00:43:55.501Z,100812.12
2019-03-21T00:45:29.734Z,100809.97
2019-03-21T00:47:04.063Z,100808.56
2019-03-21T00:48:38.367Z,100809.58
2019-03-21T00:50:15.390Z,100804.31
2019-03-21T00:51:49.714Z,100805.92
2019-03-21T00:53:23.416Z,100806.55
2019-03-21T00:54:57.721Z,100806.34
2019-03-21T00:56:32.259Z,100806.64
2019-03-21T00:58:06.601Z,100808.82
2019-03-21T00:59:40.823Z,100808.41
2019-03-21T01:01:15.048Z,100801.67
2019-03-21T01:02:49.297Z,100804.78
2019-03-21T01:04:25.552Z,100799.16
2019-03-21T01:05:59.816Z,100798.88
2019-03-21T01:07:34.111Z,100798.97
2019-03-21T01:09:11.251Z,100800.81
2019-03-21T01:10:45.512Z,100794.16
2019-03-21T01:12:20.231Z,100793.66
2019-03-21T01:13:54.555Z,100799.56
2019-03-21T01:15:28.902Z,100798.15
2019-03-21T01:17:02.563Z,100808.45
2019-03-21T01:18:45.155Z,100805.64
2019-03-21T01:20:19.525Z,100805.25
2019-03-21T01:21:53.243Z,100804.66
2019-03-21T01:23:27.564Z,100807.27
2019-03-21T01:25:01.876Z,100810.80
2019-03-21T01:26:36.241Z,100812.10
2019-03-21T01:28:11.135Z,100808.47
2019-03-21T01:29:46.046Z,100808.22
2019-03-21T01:31:20.271Z,100814.92
2019-03-21T01:32:54.538Z,100813.08
2019-03-21T01:34:28.847Z,100809.00
2019-03-21T01:36:04.290Z,100810.36
2019-03-21T01:37:38.536Z,100811.30
2019-03-21T01:39:12.814Z,100801.89
2019-03-21T01:40:55.490Z,100800.09
2019-03-21T01:42:29.818Z,100800.91
2019-03-21T01:44:03.515Z,100802.06
2019-03-21T01:45:37.858Z,100800.34
2019-03-21T01:47:12.151Z,100806.75
2019-03-21T01:48:46.505Z,100804.34
2019-03-21T01:50:22.794Z,100797.45
2019-03-21T01:51:56.427Z,100799.68
2019-03-21T01:53:30.795Z,100802.59
2019-03-21T01:55:08.296Z,100808.15
2019-03-21T01:56:42.637Z,100806.91
2019-03-21T01:58:17.558Z,100808.37
2019-03-21T01:59:52.216Z,100808.77
2019-03-21T02:01:26.581Z,100812.01
2019-03-21T02:03:00.888Z,100799.16
2019-03-21T02:04:35.176Z,100813.55
2019-03-21T02:06:09.550Z,100818.14
2019-03-21T02:07:43.847Z,100811.27
2019-03-21T02:09:18.141Z,100811.19
2019-03-21T02:10:52.483Z,100804.33
2019-03-21T02:12:26.714Z,100810.10
2019-03-21T02:14:01.033Z,100805.03
2019-03-21T02:15:35.323Z,100805.93
2019-03-21T02:17:09.585Z,100808.86
2019-03-21T02:18:45.736Z,100808.86
2019-03-21T02:20:22.089Z,100800.56
2019-03-21T02:21:56.435Z,100803.81
2019-03-21T02:23:30.829Z,100804.06
2019-03-21T02:25:10.657Z,100806.12
2019-03-21T02:26:44.369Z,100801.23
2019-03-21T02:28:18.067Z,100804.19
2019-03-21T02:29:52.992Z,100809.14
2019-03-21T02:31:27.313Z,100805.40
2019-03-21T02:33:04.873Z,100801.84
2019-03-21T02:34:39.240Z,100809.06
2019-03-21T02:36:14.368Z,100806.44
2019-03-21T02:37:48.656Z,100806.78
2019-03-21T02:39:22.977Z,100802.47
2019-03-21T02:41:03.155Z,100804.39
2019-03-21T02:42:37.471Z,100806.17
2019-03-21T02:44:11.196Z,100807.55
2019-03-21T02:45:45.478Z,100807.59
2019-03-21T02:47:19.160Z,100809.35
2019-03-21T02:48:53.459Z,100809.59
2019-03-21T02:50:31.053Z,100816.19
2019-03-21T02:52:05.299Z,100814.94
2019-03-21T02:53:39.595Z,100813.67
2019-03-21T02:55:13.300Z,100813.63
2019-03-21T02:56:47.876Z,100812.07
2019-03-21T02:58:22.182Z,100817.56
2019-03-21T02:59:56.538Z,100820.73
2019-03-21T03:01:31.463Z,100813.98
2019-03-21T03:03:06.946Z,100819.08
2019-03-21T03:04:41.281Z,100816.00
2019-03-21T03:06:15.629Z,100812.38
2019-03-21T03:07:49.902Z,100818.70
2019-03-21T03:09:24.193Z,100820.56
2019-03-21T03:11:00.700Z,100817.84
2019-03-21T03:12:34.957Z,100824.25
2019-03-21T03:14:09.204Z,100817.80
2019-03-21T03:15:43.832Z,100819.22
2019-03-21T03:17:18.071Z,100821.95
2019-03-21T03:18:52.307Z,100815.75
2019-03-21T03:20:26.551Z,100819.41
2019-03-21T03:22:00.867Z,100833.00
2019-03-21T03:23:35.137Z,100833.41
2019-03-21T03:25:11.585Z,100832.55
2019-03-21T03:26:45.932Z,100834.89
2019-03-21T03:28:25.547Z,100827.05
2019-03-21T03:30:00.055Z,100839.16
2019-03-21T03:31:34.337Z,100832.85
2019-03-21T03:33:09.126Z,100834.52
2019-03-21T03:34:43.442Z,100836.25
2019-03-21T03:36:17.777Z,100828.50
2019-03-21T03:37:52.015Z,100831.30
2019-03-21T03:39:26.366Z,100828.25
2019-03-21T03:41:06.419Z,100832.36
2019-03-21T03:42:40.748Z,100831.38
2019-03-21T03:44:14.985Z,100825.15
2019-03-21T03:45:49.292Z,100829.91
2019-03-21T03:47:23.538Z,100827.52
2019-03-21T03:48:57.860Z,100826.77
2019-03-21T03:50:32.235Z,100835.02
2019-03-21T03:52:06.534Z,100838.71
2019-03-21T03:53:42.503Z,100834.42
2019-03-21T03:55:20.523Z,100844.84
2019-03-21T03:56:54.733Z,100844.56
2019-03-21T03:58:46.965Z,100844.53
2019-03-21T04:00:22.263Z,100850.20
2019-03-21T04:01:57.987Z,100845.94
2019-03-21T04:03:32.312Z,100853.77
2019-03-21T04:05:09.794Z,100858.93
2019-03-21T04:06:46.082Z,100851.89
2019-03-21T04:08:20.313Z,100854.85
2019-03-21T04:09:54.619Z,100855.23
2019-03-21T04:11:28.923Z,100863.34
2019-03-21T04:13:03.178Z,100869.61
2019-03-21T04:14:37.451Z,100867.28
2019-03-21T04:16:11.704Z,100866.84
2019-03-21T04:17:45.931Z,100877.14
2019-03-21T04:19:20.245Z,100880.31
2019-03-21T04:21:03.593Z,100879.58
2019-03-21T04:22:37.918Z,100882.83
2019-03-21T04:24:12.227Z,100876.06
2019-03-21T04:25:49.455Z,100881.43
2019-03-21T04:27:23.733Z,100887.20
2019-03-21T04:28:57.968Z,100888.95
2019-03-21T04:30:32.692Z,100896.44
2019-03-21T04:32:06.974Z,100893.16
2019-03-21T04:33:42.829Z,100899.89
2019-03-21T04:35:17.107Z,100894.98
2019-03-21T04:36:51.319Z,100894.87
2019-03-21T04:38:25.574Z,100896.55
2019-03-21T04:39:59.879Z,100906.63
2019-03-21T04:41:33.592Z,100903.29
2019-03-21T04:43:07.825Z,100911.47
2019-03-21T04:44:44.406Z,100912.11
2019-03-21T04:46:18.061Z,100905.23
2019-03-21T04:47:52.397Z,100898.86
2019-03-21T04:49:27.102Z,100906.82
2019-03-21T04:51:01.406Z,100912.34
2019-03-21T04:52:35.770Z,100915.03
2019-03-21T04:54:10.070Z,100913.84
2019-03-21T04:55:44.379Z,100910.73
2019-03-21T04:57:18.634Z,100911.63
2019-03-21T04:58:52.973Z,100916.60
2019-03-21T05:00:39.094Z,100912.95
2019-03-21T05:02:13.454Z,100910.75
2019-03-21T05:03:47.711Z,100919.47
2019-03-21T05:05:22.115Z,100916.38
2019-03-21T05:06:56.376Z,100925.84
2019-03-21T05:08:30.596Z,100924.45
2019-03-21T05:10:07.800Z,100922.57
2019-03-21T05:11:42.104Z,100930.49
2019-03-21T05:13:16.432Z,100924.30
2019-03-21T05:14:50.743Z,100931.14
2019-03-21T05:16:24.967Z,100933.44
2019-03-21T05:18:04.488Z,100933.18
2019-03-21T05:19:38.763Z,100929.93
2019-03-21T05:21:15.990Z,100924.98
2019-03-21T05:22:50.258Z,100933.09
2019-03-21T05:24:24.488Z,100933.98
2019-03-21T05:25:58.766Z,100936.84
2019-03-21T05:27:32.990Z,100931.73
2019-03-21T05:29:07.337Z,100937.70
2019-03-21T05:30:53.392Z,100936.41
2019-03-21T05:32:27.679Z,100938.83
2019-03-21T05:34:02.053Z,100944.22
2019-03-21T05:35:36.367Z,100942.98
2019-03-21T05:37:10.623Z,100950.69
2019-03-21T05:38:44.904Z,100950.62
2019-03-21T05:40:21.181Z,100944.12
2019-03-21T05:41:55.413Z,100954.48
2019-03-21T05:43:45.259Z,100950.47
2019-03-21T05:45:21.732Z,100955.64
2019-03-21T05:46:56.047Z,100957.14
2019-03-21T05:48:30.268Z,100951.90
2019-03-21T05:50:07.386Z,100954.34
2019-03-21T05:51:42.098Z,100954.63
2019-03-21T05:53:16.394Z,100953.20
2019-03-21T05:54:50.670Z,100960.50
2019-03-21T05:56:25.011Z,100956.42
2019-03-21T05:57:59.289Z,100963.61
2019-03-21T05:59:33.533Z,100960.84
2019-03-21T06:01:12.960Z,100969.00
2019-03-21T06:02:47.292Z,100967.80
2019-03-21T06:04:21.627Z,100971.50
2019-03-21T06:06:01.868Z,100973.80
2019-03-21T06:07:38.561Z,100975.14
2019-03-21T06:09:18.760Z,100978.52
2019-03-21T06:10:52.976Z,100979.09
2019-03-21T06:12:27.229Z,100978.58
2019-03-21T06:14:01.554Z,100982.02
2019-03-21T06:15:38.666Z,100982.89
2019-03-21T06:17:12.896Z,100988.73
2019-03-21T06:19:05.337Z,100982.61
2019-03-21T06:20:59.097Z,100982.57
2019-03-21T06:22:45.021Z,100987.91
2019-03-21T06:24:43.384Z,100987.01
2019-03-21T06:26:44.655Z,100993.58
2019-03-21T06:28:18.911Z,101004.88
2019-03-21T06:29:53.226Z,101003.72
2019-03-21T06:31:27.792Z,101002.84
2019-03-21T06:33:02.092Z,101013.37
2019-03-21T06:34:36.433Z,101015.23
2019-03-21T06:36:10.664Z,101021.90
2019-03-21T06:37:45.460Z,101026.92
2019-03-21T06:39:19.698Z,101032.03
2019-03-21T06:40:54.010Z,101032.59
2019-03-21T06:42:27.665Z,101031.75
2019-03-21T06:44:01.945Z,101029.98
2019-03-21T06:45:47.292Z,101035.61
2019-03-21T06:47:12.167Z,101032.77
2019-03-21T06:48:47.861Z,101035.12
2019-03-21T06:50:22.175Z,101040.64
2019-03-21T06:51:56.575Z,101039.56
2019-03-21T06:53:31.498Z,101044.88
2019-03-21T06:55:06.037Z,101046.94
2019-03-21T06:56:40.354Z,101049.03
2019-03-21T06:58:14.631Z,101048.84
2019-03-21T06:59:50.181Z,101047.13
2019-03-21T07:01:24.421Z,101045.99
2019-03-21T07:02:58.212Z,101048.39
2019-03-21T07:04:32.528Z,101044.36
2019-03-21T07:06:06.777Z,101050.56
2019-03-21T07:07:41.020Z,101057.48
2019-03-21T07:09:15.685Z,101053.66
2019-03-21T07:10:50.018Z,101060.34
2019-03-21T07:12:24.261Z,101058.77
2019-03-21T07:13:58.595Z,101050.63
2019-03-21T07:15:32.886Z,101055.45
2019-03-21T07:17:07.205Z,101056.69
2019-03-21T07:18:41.459Z,101053.35
2019-03-21T07:20:15.696Z,101051.45
2019-03-21T07:21:50.000Z,101062.28
2019-03-21T07:23:24.314Z,101056.53
2019-03-21T07:24:59.027Z,101060.20
2019-03-21T07:26:33.284Z,101058.69
2019-03-21T07:28:07.624Z,101057.04
2019-03-21T07:29:41.963Z,101060.66
2019-03-21T07:31:16.189Z,101061.64
2019-03-21T07:32:50.619Z,101060.31
2019-03-21T07:34:24.838Z,101060.80
2019-03-21T07:35:59.163Z,101059.72
2019-03-21T07:37:33.466Z,101065.09
2019-03-21T07:39:08.384Z,101062.91
2019-03-21T07:40:42.805Z,101064.58
2019-03-21T07:42:17.149Z,101055.22
2019-03-21T07:43:51.458Z,101062.14
2019-03-21T07:45:25.777Z,101056.67
2019-03-21T07:47:11.713Z,101060.48
2019-03-21T07:48:36.137Z,101055.44
2019-03-21T07:50:14.761Z,101050.33
2019-03-21T07:51:50.957Z,101046.72
2019-03-21T07:53:25.200Z,101050.31
2019-03-21T07:54:59.441Z,101048.66
2019-03-21T07:56:33.825Z,101051.75
2019-03-21T07:58:08.108Z,101051.75
2019-03-21T07:59:42.338Z,101051.27
2019-03-21T08:01:16.571Z,101051.52
2019-03-21T08:02:50.923Z,101048.55
2019-03-21T08:04:25.162Z,101039.11
2019-03-21T08:05:59.441Z,101051.95
2019-03-21T08:07:33.678Z,101051.05
2019-03-21T08:09:08.296Z,101061.14
2019-03-21T08:10:42.589Z,101058.94
2019-03-21T08:12:16.929Z,101053.96
2019-03-21T08:13:51.175Z,101052.91
2019-03-21T08:15:25.477Z,101055.31
2019-03-21T08:17:00.723Z,101055.36
2019-03-21T08:18:34.959Z,101058.61
2019-03-21T08:20:11.679Z,101057.50
2019-03-21T08:21:45.927Z,101054.24
2019-03-21T08:23:20.191Z,101052.46
2019-03-21T08:24:54.483Z,101053.38
2019-03-21T08:26:28.777Z,101056.45
2019-03-21T08:28:03.450Z,101049.78
2019-03-21T08:29:37.673Z,101049.61
2019-03-21T08:31:14.041Z,101048.53
2019-03-21T08:32:48.366Z,101041.50
2019-03-21T08:34:22.982Z,101043.79
2019-03-21T08:35:57.282Z,101041.13
2019-03-21T08:37:31.502Z,101037.69
2019-03-21T08:39:07.690Z,101029.75
2019-03-21T08:40:42.715Z,101032.78
2019-03-21T08:42:17.197Z,101030.16
2019-03-21T08:43:51.444Z,101019.66
2019-03-21T08:45:25.727Z,101019.14
2019-03-21T08:46:59.988Z,101015.22
2019-03-21T08:48:34.230Z,101022.94
2019-03-21T08:50:11.268Z,101025.91
2019-03-21T08:51:45.558Z,101034.05
2019-03-21T08:53:19.789Z,101028.70
2019-03-21T08:54:54.123Z,101031.12
2019-03-21T08:56:28.436Z,101023.66
2019-03-21T08:58:02.976Z,101017.80
2019-03-21T08:59:37.335Z,101021.27
2019-03-21T09:01:11.613Z,101017.19
2019-03-21T09:02:45.940Z,101014.50
2019-03-21T09:04:20.251Z,101015.16
2019-03-21T09:05:54.475Z,101021.64
2019-03-21T09:07:28.842Z,101018.61
2019-03-21T09:09:04.158Z,101017.39
2019-03-21T09:10:38.363Z,101017.75
2019-03-21T09:12:12.655Z,101013.70
2019-03-21T09:13:47.409Z,101016.42
2019-03-21T09:15:21.707Z,101009.52
2019-03-21T09:16:55.943Z,101009.06
2019-03-21T09:18:30.822Z,101007.30
2019-03-21T09:20:07.190Z,101000.44
2019-03-21T09:21:41.422Z,101006.97
2019-03-21T09:23:15.749Z,101008.12
2019-03-21T09:24:49.997Z,101009.57
2019-03-21T09:26:24.351Z,101006.34
2019-03-21T09:28:02.773Z,101010.83
2019-03-21T09:29:34.487Z,101005.73
2019-03-21T09:31:08.797Z,101003.08
2019-03-21T09:32:43.070Z,101004.74
2019-03-21T09:34:17.438Z,100997.81
2019-03-21T09:35:51.850Z,100990.33
2019-03-21T09:37:26.083Z,100994.36
2019-03-21T09:39:00.319Z,100994.91
2019-03-21T09:40:34.603Z,100991.17
2019-03-21T09:42:08.847Z,100987.76
2019-03-21T09:43:43.068Z,100992.19
2019-03-21T09:45:17.351Z,100993.00
2019-03-21T09:46:51.759Z,100987.27
2019-03-21T09:48:26.042Z,100986.28
2019-03-21T09:50:00.421Z,100977.50
2019-03-21T09:51:34.736Z,100978.86
2019-03-21T09:53:09.053Z,100981.39
2019-03-21T09:54:43.287Z,100982.05
2019-03-21T09:56:17.625Z,100985.09
2019-03-21T09:57:51.859Z,100984.02
2019-03-21T09:59:26.144Z,100984.45
2019-03-21T10:01:00.439Z,100980.80
2019-03-21T10:02:34.986Z,100982.48
2019-03-21T10:04:09.226Z,100979.61
2019-03-21T10:05:43.574Z,100972.84
2019-03-21T10:07:17.872Z,100974.39
2019-03-21T10:08:52.109Z,100969.27
2019-03-21T10:10:29.181Z,100967.05
2019-03-21T10:12:03.535Z,100961.75
2019-03-21T10:13:37.776Z,100952.95
2019-03-21T10:15:12.128Z,100946.11
2019-03-21T10:16:46.406Z,100943.17
2019-03-21T10:18:20.620Z,100936.59
2019-03-21T10:19:54.953Z,100936.48
2019-03-21T10:21:29.197Z,100931.36
2019-03-21T10:23:03.490Z,100934.14
2019-03-21T10:24:37.789Z,100931.64
2019-03-21T10:26:12.074Z,100938.63
2019-03-21T10:27:46.397Z,100930.30
2019-03-21T10:29:20.688Z,100935.51
2019-03-21T10:30:57.235Z,100931.45
2019-03-21T10:32:31.417Z,100933.62
2019-03-21T10:34:05.644Z,100932.67
2019-03-21T10:35:39.950Z,100929.98
2019-03-21T10:37:14.557Z,100928.95
2019-03-21T10:38:48.838Z,100928.60
2019-03-21T10:40:23.135Z,100930.19
2019-03-21T10:41:57.469Z,100925.30
2019-03-21T10:43:31.800Z,100928.91
2019-03-21T10:45:07.641Z,100927.47
2019-03-21T10:46:42.078Z,100928.92
2019-03-21T10:48:16.308Z,100933.40
2019-03-21T10:49:50.594Z,100929.64
2019-03-21T10:51:24.955Z,100929.96
2019-03-21T10:52:59.653Z,100929.33
2019-03-21T10:54:33.885Z,100927.53
2019-03-21T10:56:08.243Z,100923.47
2019-03-21T10:57:42.554Z,100924.27
2019-03-21T10:59:16.875Z,100926.13
2019-03-21T11:00:52.563Z,100925.38
2019-03-21T11:02:27.475Z,100925.53
2019-03-21T11:04:01.781Z,100919.12
2019-03-21T11:05:36.111Z,100917.34
2019-03-21T11:07:09.113Z,100916.83
2019-03-21T11:08:43.493Z,100917.09
2019-03-21T11:10:17.834Z,100917.81
2019-03-21T11:11:52.139Z,100915.32
2019-03-21T11:13:26.508Z,100918.41
2019-03-21T11:15:00.737Z,100909.09
2019-03-21T11:16:35.045Z,100911.06
2019-03-21T11:18:09.339Z,100908.68
2019-03-21T11:19:43.700Z,100909.02
2019-03-21T11:21:18.430Z,100905.98
2019-03-21T11:22:52.803Z,100904.18
2019-03-21T11:24:27.124Z,100904.11
2019-03-21T11:26:01.440Z,100907.56
2019-03-21T11:27:35.728Z,100901.50
2019-03-21T11:29:10.047Z,100907.48
2019-03-21T11:30:44.474Z,100901.14
2019-03-21T11:32:18.742Z,100903.09
2019-03-21T11:33:53.055Z,100899.66
2019-03-21T11:35:27.376Z,100903.56
2019-03-21T11:37:01.669Z,100910.98
2019-03-21T11:38:36.415Z,100909.68
2019-03-21T11:40:10.623Z,100905.48
2019-03-21T11:41:44.981Z,100908.16
2019-03-21T11:43:19.238Z,100908.55
2019-03-21T11:44:53.467Z,100906.36
2019-03-21T11:46:27.768Z,100907.98
2019-03-21T11:48:02.122Z,100905.33
2019-03-21T11:49:36.391Z,100894.87
2019-03-21T11:51:10.666Z,100897.87
2019-03-21T11:52:44.979Z,100838.78
2019-03-21T11:54:19.235Z,100904.48
2019-03-21T11:55:53.473Z,100905.77
2019-03-21T11:57:27.777Z,100899.74
2019-03-21T11:59:02.038Z,100898.53
2019-03-21T12:00:43.525Z,100899.15
2019-03-21T12:02:12.295Z,100899.86
2019-03-21T12:03:46.673Z,100899.39
2019-03-21T12:05:20.919Z,100901.80
2019-03-21T12:06:55.230Z,100895.86
2019-03-21T12:08:29.558Z,100893.97
2019-03-21T12:10:04.787Z,100886.73
2019-03-21T12:11:40.084Z,100889.46
2019-03-21T12:13:14.398Z,100890.28
2019-03-21T12:14:48.660Z,100887.30
2019-03-21T12:16:22.912Z,100886.95
2019-03-21T12:17:57.224Z,100884.31
2019-03-21T12:19:31.965Z,100878.67
2019-03-21T12:21:06.271Z,100872.20
2019-03-21T12:22:40.516Z,100875.27
2019-03-21T12:24:14.809Z,100874.77
2019-03-21T12:25:49.101Z,100874.47
2019-03-21T12:27:23.434Z,100872.38
2019-03-21T12:28:58.007Z,100869.14
2019-03-21T12:30:39.682Z,100861.54
2019-03-21T12:32:13.949Z,100861.16
2019-03-21T12:33:48.279Z,100861.05
2019-03-21T12:35:22.613Z,100859.27
2019-03-21T12:36:57.975Z,100855.16
2019-03-21T12:38:32.309Z,100853.64
2019-03-21T12:40:09.192Z,100862.88
2019-03-21T12:41:43.488Z,100862.23
2019-03-21T12:43:17.836Z,100864.95
2019-03-21T12:44:52.163Z,100859.70
2019-03-21T12:46:26.425Z,100861.11
2019-03-21T12:48:00.667Z,100857.75
2019-03-21T12:49:34.994Z,100855.42
2019-03-21T12:51:09.227Z,100858.88
2019-03-21T12:52:43.588Z,100850.44
2019-03-21T12:54:19.481Z,100855.13
2019-03-21T12:55:53.772Z,100850.86
2019-03-21T12:57:28.068Z,100848.88
2019-03-21T12:59:02.345Z,100852.96
2019-03-21T13:00:40.833Z,100857.33
2019-03-21T13:02:15.141Z,100857.39
2019-03-21T13:03:49.431Z,100863.64
2019-03-21T13:05:31.438Z,100861.13
2019-03-21T13:07:05.677Z,100858.52
2019-03-21T13:08:39.943Z,100857.05
2019-03-21T13:10:14.375Z,100849.88
2019-03-21T13:11:48.675Z,100850.79
2019-03-21T13:13:22.968Z,100846.77
2019-03-21T13:14:57.223Z,100843.48
2019-03-21T13:16:31.558Z,100842.24
2019-03-21T13:18:07.185Z,100843.94
2019-03-21T13:19:41.542Z,100840.68
2019-03-21T13:21:15.962Z,100836.75
2019-03-21T13:22:53.207Z,100837.10
2019-03-21T13:24:26.273Z,100840.67
2019-03-21T13:26:00.578Z,100835.08
2019-03-21T13:27:34.894Z,100834.98
2019-03-21T13:29:09.151Z,100833.46
2019-03-21T13:30:43.458Z,100829.89
2019-03-21T13:32:17.732Z,100835.56
2019-03-21T13:33:52.052Z,100827.45
2019-03-21T13:35:32.570Z,100834.45
2019-03-21T13:37:02.583Z,100824.36
2019-03-21T13:38:36.917Z,100825.23
2019-03-21T13:40:11.535Z,100824.21
2019-03-21T13:41:45.759Z,100818.46
2019-03-21T13:43:20.149Z,100823.64
2019-03-21T13:44:56.364Z,100825.01
2019-03-21T13:46:30.596Z,100824.13
2019-03-21T13:48:05.370Z,100815.62
2019-03-21T13:49:39.761Z,100812.39
2019-03-21T13:51:14.006Z,100819.78
2019-03-21T13:52:48.609Z,100825.06
2019-03-21T13:54:22.947Z,100817.67
2019-03-21T13:55:57.221Z,100819.87
2019-03-21T13:57:31.521Z,100817.64
2019-03-21T13:59:05.830Z,100814.64
2019-03-21T14:00:41.193Z,100813.57
2019-03-21T14:02:15.796Z,100817.53
2019-03-21T14:03:50.121Z,100812.34
2019-03-21T14:05:24.408Z,100815.11
2019-03-21T14:06:58.637Z,100818.84
2019-03-21T14:08:33.610Z,100812.77
2019-03-21T14:10:09.513Z,100809.17
2019-03-21T14:11:43.825Z,100806.67
2019-03-21T14:13:19.171Z,100808.56
2019-03-21T14:14:53.521Z,100813.34
2019-03-21T14:16:27.813Z,100810.39
2019-03-21T14:18:02.117Z,100806.17
2019-03-21T14:19:36.370Z,100803.86
2019-03-21T14:21:10.722Z,100802.22
2019-03-21T14:22:44.958Z,100801.77
2019-03-21T14:24:19.279Z,100811.08
2019-03-21T14:25:53.591Z,100808.36
2019-03-21T14:27:27.871Z,100811.13
2019-03-21T14:29:12.112Z,100806.20
2019-03-21T14:30:38.127Z,100804.52
2019-03-21T14:32:12.446Z,100812.53
2019-03-21T14:33:46.800Z,100808.27
2019-03-21T14:35:25.792Z,100804.28
2019-03-21T14:37:00.099Z,100803.37
2019-03-21T14:38:34.415Z,100802.69
2019-03-21T14:40:11.621Z,100803.20
2019-03-21T14:41:46.132Z,100804.21
2019-03-21T14:43:20.433Z,100800.20
2019-03-21T14:44:54.736Z,100807.77
2019-03-21T14:46:29.109Z,100808.57
2019-03-21T14:48:03.441Z,100806.97
2019-03-21T14:49:37.683Z,100799.08
2019-03-21T14:51:11.922Z,100805.12
2019-03-21T14:52:46.340Z,100801.56
2019-03-21T14:54:20.659Z,100794.66
2019-03-21T14:55:54.894Z,100798.88
2019-03-21T14:57:29.221Z,100791.97
2019-03-21T14:59:03.561Z,100798.76
2019-03-21T15:00:37.801Z,100794.55
2019-03-21T15:02:12.164Z,100799.04
2019-03-21T15:03:46.437Z,100794.34
2019-03-21T15:05:21.274Z,100795.02
2019-03-21T15:06:55.590Z,100797.33
2019-03-21T15:08:29.964Z,100799.30
2019-03-21T15:10:06.921Z,100799.71
2019-03-21T15:11:41.185Z,100798.90
2019-03-21T15:13:15.451Z,100802.36
2019-03-21T15:14:49.789Z,100801.30
2019-03-21T15:16:24.117Z,100798.92
2019-03-21T15:17:58.853Z,100801.62
2019-03-21T15:19:33.528Z,100802.69
2019-03-21T15:21:07.881Z,100801.20
2019-03-21T15:22:42.123Z,100803.51
2019-03-21T15:24:16.369Z,100786.05
2019-03-21T15:25:51.142Z,100806.23
2019-03-21T15:27:25.851Z,100806.41
2019-03-21T15:29:00.205Z,100808.22
2019-03-21T15:30:34.449Z,100805.76
2019-03-21T15:32:08.781Z,100811.20
2019-03-21T15:33:43.213Z,100810.61
2019-03-21T15:35:19.569Z,100805.56
2019-03-21T15:36:53.896Z,100809.62
2019-03-21T15:38:28.212Z,100809.60
2019-03-21T15:40:02.508Z,100806.31
2019-03-21T15:41:38.001Z,100805.31
2019-03-21T15:43:12.575Z,100801.52
2019-03-21T15:44:46.835Z,100804.70
2019-03-21T15:46:21.197Z,100807.27
2019-03-21T15:47:55.497Z,100811.23
2019-03-21T15:49:29.723Z,100803.08
2019-03-21T15:51:05.112Z,100806.44
2019-03-21T15:52:39.607Z,100803.45
2019-03-21T15:54:13.820Z,100805.08
2019-03-21T15:55:48.119Z,100806.83
2019-03-21T15:57:22.477Z,100807.68
2019-03-21T15:58:56.718Z,100813.14
2019-03-21T16:00:35.959Z,100807.54
2019-03-21T16:02:10.295Z,100809.33
2019-03-21T16:03:44.555Z,100811.49
2019-03-21T16:05:18.792Z,100811.00
2019-03-21T16:06:53.094Z,100816.77
2019-03-21T16:08:28.715Z,100814.69
2019-03-21T16:10:03.316Z,100817.75
2019-03-21T16:11:37.793Z,100815.66
2019-03-21T16:13:12.057Z,100814.22
2019-03-21T16:14:49.144Z,100816.03
2019-03-21T16:16:22.296Z,100812.74
2019-03-21T16:17:56.616Z,100813.14
2019-03-21T16:19:30.877Z,100821.02
2019-03-21T16:21:06.165Z,100816.80
2019-03-21T16:22:40.797Z,100824.22
2019-03-21T16:24:15.069Z,100824.22
2019-03-21T16:25:49.389Z,100824.70
2019-03-21T16:27:23.981Z,100831.59
2019-03-21T16:28:58.209Z,100834.88
2019-03-21T16:30:32.563Z,100835.45
2019-03-21T16:32:06.851Z,100837.68
2019-03-21T16:33:43.314Z,100841.83
2019-03-21T16:35:17.038Z,100841.50
2019-03-21T16:36:51.371Z,100842.25
2019-03-21T16:38:25.698Z,100844.79
2019-03-21T16:40:00.445Z,100838.67
2019-03-21T16:41:34.669Z,100845.64
2019-03-21T16:43:09.005Z,100842.19
2019-03-21T16:44:43.449Z,100839.65
2019-03-21T16:46:17.754Z,100843.08
2019-03-21T16:47:51.956Z,100851.08
2019-03-21T16:49:26.319Z,100848.38
2019-03-21T16:51:02.884Z,100847.88
2019-03-21T16:52:36.530Z,100850.05
2019-03-21T16:54:17.127Z,100851.14
2019-03-21T16:55:46.863Z,100848.05
2019-03-21T16:57:21.187Z,100849.33
2019-03-21T16:58:55.841Z,100843.66
2019-03-21T17:00:30.253Z,100852.39
2019-03-21T17:02:04.618Z,100846.86
2019-03-21T17:03:38.928Z,100850.52
2019-03-21T17:05:13.279Z,100850.84
2019-03-21T17:06:47.592Z,100843.24
2019-03-21T17:08:21.858Z,100843.73
2019-03-21T17:09:57.979Z,100846.03
2019-03-21T17:11:32.269Z,100847.09
2019-03-21T17:13:07.392Z,100847.84
2019-03-21T17:14:41.944Z,100845.94
2019-03-21T17:16:16.182Z,100843.41
2019-03-21T17:17:52.983Z,100849.81
2019-03-21T17:19:27.334Z,100850.02
2019-03-21T17:21:01.530Z,100846.66
2019-03-21T17:22:35.877Z,100853.64
2019-03-21T17:24:10.151Z,100852.02
2019-03-21T17:25:44.527Z,100855.21
2019-03-21T17:27:18.780Z,100854.52
2019-03-21T17:28:53.076Z,100853.53
2019-03-21T17:30:27.395Z,100852.91
2019-03-21T17:32:01.658Z,100861.23
2019-03-21T17:33:36.457Z,100858.70
2019-03-21T17:35:12.485Z,100857.37
2019-03-21T17:36:46.724Z,100862.20
2019-03-21T17:38:21.055Z,100856.77
2019-03-21T17:39:55.365Z,100859.41
2019-03-21T17:41:29.669Z,100857.46
2019-03-21T17:43:04.479Z,100863.90
2019-03-21T17:44:38.836Z,100855.58
2019-03-21T17:46:13.687Z,100856.43
2019-03-21T17:47:47.942Z,100857.58
2019-03-21T17:49:22.252Z,100859.98
2019-03-21T17:50:56.611Z,100856.40
2019-03-21T17:52:30.893Z,100864.39
2019-03-21T17:54:05.191Z,100853.95
2019-03-21T17:55:39.461Z,100860.11
2019-03-21T17:57:13.795Z,100861.97
2019-03-21T17:58:48.097Z,100861.48
2019-03-21T18:00:36.620Z,100858.23
2019-03-21T18:02:10.970Z,100861.02
2019-03-21T18:03:45.565Z,100858.13